createdAt,value
2018-02-09T00:00:39.234Z,90.50
2018-02-09T00:03:05.849Z,85.75
2018-02-09T00:05:32.414Z,93.03
2018-02-09T00:07:59.258Z,95.05
2018-02-09T00:10:25.840Z,86.35
2018-02-09T00:12:52.491Z,97.25
2018-02-09T00:15:19.054Z,91.60
2018-02-09T00:17:45.635Z,91.70
2018-02-09T00:20:12.223Z,89.22
2018-02-09T00:22:44.666Z,93.20
2018-02-09T00:25:11.247Z,88.43
2018-02-09T00:27:37.828Z,78.03
2018-02-09T00:30:04.507Z,95.65
2018-02-09T00:32:31.086Z,85.38
2018-02-09T00:34:57.663Z,82.20
2018-02-09T00:37:24.512Z,91.25
2018-02-09T00:39:51.087Z,87.57
2018-02-09T00:42:17.690Z,85.00
2018-02-09T00:44:44.262Z,90.47
2018-02-09T00:47:10.841Z,88.45
2018-02-09T00:49:37.420Z,81.65
2018-02-09T00:52:04.013Z,97.07
2018-02-09T00:54:30.587Z,78.40
2018-02-09T00:56:57.173Z,86.75
2018-02-09T00:59:23.868Z,80.62
2018-02-09T01:01:50.476Z,82.93
2018-02-09T01:04:17.023Z,88.65
2018-02-09T01:06:43.787Z,105.03
2018-02-09T01:09:10.368Z,89.90
2018-02-09T01:11:36.947Z,85.95
2018-02-09T01:14:03.641Z,90.20
2018-02-09T01:16:30.224Z,85.15
2018-02-09T01:18:56.803Z,87.57
2018-02-09T01:21:23.501Z,85.80
2018-02-09T01:23:50.070Z,98.70
2018-02-09T01:26:16.642Z,84.90
2018-02-09T01:28:43.395Z,89.25
2018-02-09T01:31:09.977Z,78.95
2018-02-09T01:33:36.560Z,97.28
2018-02-09T01:36:03.244Z,91.85
2018-02-09T01:38:29.810Z,88.57
2018-02-09T01:40:56.390Z,100.18
2018-02-09T01:43:22.983Z,80.35
2018-02-09T01:45:49.567Z,84.35
2018-02-09T01:48:16.174Z,89.68
2018-02-09T01:50:42.775Z,89.40
2018-02-09T01:53:09.354Z,92.55
2018-02-09T01:55:35.918Z,91.82
2018-02-09T01:58:02.531Z,89.05
2018-02-09T02:00:29.102Z,82.07
2018-02-09T02:02:55.678Z,87.65
2018-02-09T02:05:22.261Z,91.12
2018-02-09T02:07:48.836Z,93.30
2018-02-09T02:10:15.435Z,97.03
2018-02-09T02:12:42.010Z,95.95
2018-02-09T02:15:08.601Z,96.55
2018-02-09T02:17:35.442Z,95.78
2018-02-09T02:20:02.171Z,83.95
2018-02-09T02:22:28.723Z,92.62
2018-02-09T02:24:55.407Z,87.55
2018-02-09T02:27:21.978Z,85.25
2018-02-09T02:29:48.558Z,93.18
2018-02-09T02:32:15.320Z,89.75
2018-02-09T02:34:41.899Z,90.43
2018-02-09T02:37:08.478Z,99.47
2018-02-09T02:39:35.072Z,97.18
2018-02-09T02:42:01.686Z,96.22
2018-02-09T02:44:28.226Z,90.38
2018-02-09T02:46:54.839Z,99.82
2018-02-09T02:49:21.422Z,87.53
2018-02-09T02:51:47.994Z,96.35
2018-02-09T02:54:14.888Z,87.47
2018-02-09T02:56:41.450Z,87.53
2018-02-09T02:59:08.039Z,89.32
2018-02-09T03:01:34.635Z,98.68
2018-02-09T03:04:01.219Z,99.60
2018-02-09T03:06:27.804Z,105.15
2018-02-09T03:08:54.670Z,89.20
2018-02-09T03:11:21.252Z,93.62
2018-02-09T03:13:47.832Z,95.10
2018-02-09T03:16:14.421Z,92.65
2018-02-09T03:18:41.004Z,86.90
2018-02-09T03:21:07.580Z,94.05
2018-02-09T03:23:34.169Z,91.87
2018-02-09T03:26:00.743Z,111.00
2018-02-09T03:28:27.318Z,90.43
2018-02-09T03:30:53.909Z,97.55
2018-02-09T03:33:20.475Z,95.20
2018-02-09T03:35:47.070Z,102.25
2018-02-09T03:38:13.650Z,90.87
2018-02-09T03:40:40.231Z,96.60
2018-02-09T03:43:06.835Z,89.87
2018-02-09T03:45:33.647Z,99.37
2018-02-09T03:48:00.226Z,97.90
2018-02-09T03:50:26.840Z,85.70
2018-02-09T03:52:53.424Z,93.37
2018-02-09T03:55:20.000Z,102.93
2018-02-09T03:57:46.611Z,105.05
2018-02-09T04:00:13.182Z,81.95
2018-02-09T04:02:39.767Z,98.25
2018-02-09T04:05:06.363Z,81.78
2018-02-09T04:07:32.947Z,93.37
2018-02-09T04:09:59.527Z,82.05
2018-02-09T04:12:26.287Z,97.47
2018-02-09T04:14:52.864Z,90.47
2018-02-09T04:17:19.451Z,91.85
2018-02-09T04:19:46.048Z,87.18
2018-02-09T04:22:12.692Z,93.15
2018-02-09T04:24:39.250Z,83.70
2018-02-09T04:27:05.863Z,90.50
2018-02-09T04:29:32.454Z,87.90
2018-02-09T04:31:59.031Z,95.15
2018-02-09T04:34:26.155Z,89.97
2018-02-09T04:36:52.731Z,92.78
2018-02-09T04:39:19.316Z,97.47
2018-02-09T04:41:45.894Z,94.78
2018-02-09T04:44:12.480Z,105.30
2018-02-09T04:46:39.078Z,89.47
2018-02-09T04:49:05.659Z,98.18
2018-02-09T04:51:32.231Z,98.32
2018-02-09T04:53:58.839Z,91.68
2018-02-09T04:56:26.172Z,105.03
2018-02-09T04:58:52.739Z,91.80
2018-02-09T05:01:19.343Z,96.53
2018-02-09T05:03:45.915Z,91.97
2018-02-09T05:06:12.495Z,94.03
2018-02-09T05:08:39.078Z,87.50
2018-02-09T05:11:05.654Z,84.60
2018-02-09T05:13:32.238Z,98.50
2018-02-09T05:15:59.007Z,103.12
2018-02-09T05:18:25.586Z,99.07
2018-02-09T05:20:52.158Z,93.05
2018-02-09T05:23:18.763Z,98.20
2018-02-09T05:25:45.340Z,99.95
2018-02-09T05:28:11.914Z,94.03
2018-02-09T05:30:38.511Z,93.95
2018-02-09T05:33:05.087Z,102.18
2018-02-09T05:35:31.666Z,96.07
2018-02-09T05:37:58.267Z,99.25
2018-02-09T05:40:24.842Z,86.43
2018-02-09T05:42:51.422Z,97.18
2018-02-09T05:45:18.115Z,92.12
2018-02-09T05:47:44.690Z,99.62
2018-02-09T05:50:11.266Z,98.93
2018-02-09T05:52:37.871Z,93.37
2018-02-09T05:55:04.463Z,96.85
2018-02-09T05:57:31.046Z,89.18
2018-02-09T05:59:57.727Z,95.07
2018-02-09T06:02:24.301Z,86.63
2018-02-09T06:04:50.876Z,93.60
2018-02-09T06:07:17.463Z,93.72
2018-02-09T06:09:44.053Z,96.10
2018-02-09T06:12:10.627Z,90.28
2018-02-09T06:14:37.246Z,94.90
2018-02-09T06:17:03.822Z,96.40
2018-02-09T06:19:30.398Z,92.68
2018-02-09T06:21:57.014Z,90.95
2018-02-09T06:24:23.590Z,107.90
2018-02-09T06:26:50.172Z,96.18
2018-02-09T06:29:16.918Z,98.25
2018-02-09T06:31:43.666Z,86.32
2018-02-09T06:34:10.246Z,95.55
2018-02-09T06:36:36.846Z,105.28
2018-02-09T06:39:03.427Z,88.65
2018-02-09T06:41:30.011Z,98.35
2018-02-09T06:43:57.683Z,106.82
2018-02-09T06:46:24.436Z,93.53
2018-02-09T06:48:51.127Z,100.55
2018-02-09T06:51:17.822Z,90.40
2018-02-09T06:53:44.396Z,111.00
2018-02-09T06:56:11.106Z,99.37
2018-02-09T06:58:37.698Z,82.75
2018-02-09T07:01:04.284Z,100.25
2018-02-09T07:03:30.934Z,96.93
2018-02-09T07:05:57.651Z,107.40
2018-02-09T07:08:24.232Z,97.80
2018-02-09T07:10:50.807Z,92.37
2018-02-09T07:13:17.655Z,108.68
2018-02-09T07:15:44.236Z,103.38
2018-02-09T07:18:10.807Z,96.47
2018-02-09T07:20:37.425Z,97.45
2018-02-09T07:23:04.003Z,104.70
2018-02-09T07:25:30.606Z,113.00
2018-02-09T07:27:57.218Z,107.22
2018-02-09T07:30:23.798Z,110.43
2018-02-09T07:32:50.406Z,95.72
2018-02-09T07:35:16.966Z,104.70
2018-02-09T07:37:43.564Z,106.47
2018-02-09T07:40:10.577Z,96.57
2018-02-09T07:42:37.156Z,100.40
2018-02-09T07:45:03.735Z,96.65
2018-02-09T07:47:30.426Z,103.20
2018-02-09T07:49:57.017Z,101.30
2018-02-09T07:52:23.599Z,102.05
2018-02-09T07:54:50.363Z,100.60
2018-02-09T07:57:16.966Z,99.85
2018-02-09T07:59:43.551Z,101.72
2018-02-09T08:02:10.139Z,105.35
2018-02-09T08:04:36.903Z,88.80
2018-02-09T08:07:03.656Z,99.43
2018-02-09T08:09:30.365Z,103.22
2018-02-09T08:11:56.963Z,93.05
2018-02-09T08:14:23.520Z,97.43
2018-02-09T08:16:50.123Z,93.78
2018-02-09T08:19:16.772Z,99.40
2018-02-09T08:21:43.379Z,94.40
2018-02-09T08:24:09.947Z,105.18
2018-02-09T08:26:36.868Z,91.37
2018-02-09T08:29:03.439Z,98.68
2018-02-09T08:31:30.027Z,107.65
2018-02-09T08:34:00.347Z,110.50
2018-02-09T08:36:26.960Z,102.28
2018-02-09T08:38:53.588Z,101.95
2018-02-09T08:41:20.196Z,97.50
2018-02-09T08:43:46.777Z,109.12
2018-02-09T08:46:13.355Z,91.35
2018-02-09T08:48:39.978Z,109.72
2018-02-09T08:51:06.550Z,98.45
2018-02-09T08:53:33.203Z,105.37
2018-02-09T08:55:59.810Z,91.37
2018-02-09T08:58:26.395Z,86.95
2018-02-09T09:00:53.145Z,102.28
2018-02-09T09:03:19.724Z,94.78
2018-02-09T09:05:46.318Z,111.75
2018-02-09T09:08:13.177Z,101.20
2018-02-09T09:10:39.784Z,102.03
2018-02-09T09:13:06.367Z,93.40
2018-02-09T09:15:32.943Z,97.65
2018-02-09T09:17:59.554Z,108.10
2018-02-09T09:20:26.138Z,100.97
2018-02-09T09:22:52.740Z,97.30
2018-02-09T09:25:19.467Z,107.28
2018-02-09T09:27:46.030Z,106.65
2018-02-09T09:30:12.613Z,99.35
2018-02-09T09:32:40.062Z,93.80
2018-02-09T09:35:06.625Z,84.68
2018-02-09T09:37:33.203Z,89.57
2018-02-09T09:39:59.811Z,92.93
2018-02-09T09:42:26.390Z,98.07
2018-02-09T09:44:52.975Z,105.53
2018-02-09T09:47:19.583Z,98.37
2018-02-09T09:49:46.163Z,96.05
2018-02-09T09:52:12.734Z,97.12
2018-02-09T09:54:39.343Z,100.40
2018-02-09T09:57:05.916Z,92.93
2018-02-09T09:59:32.502Z,99.35
2018-02-09T10:01:59.248Z,86.22
2018-02-09T10:04:25.828Z,107.37
2018-02-09T10:06:52.411Z,105.00
2018-02-09T10:09:18.996Z,93.68
2018-02-09T10:11:45.580Z,91.87
2018-02-09T10:14:12.150Z,95.68
2018-02-09T10:16:38.922Z,104.30
2018-02-09T10:19:05.503Z,87.82
2018-02-09T10:21:32.082Z,102.97
2018-02-09T10:23:58.696Z,96.53
2018-02-09T10:26:25.274Z,89.87
2018-02-09T10:28:51.860Z,97.68
2018-02-09T10:31:18.435Z,98.00
2018-02-09T10:33:45.010Z,87.22
2018-02-09T10:36:11.622Z,98.05
2018-02-09T10:38:38.202Z,88.87
2018-02-09T10:41:04.796Z,93.80
2018-02-09T10:43:31.394Z,91.10
2018-02-09T10:45:57.978Z,96.07
2018-02-09T10:48:24.558Z,81.22
2018-02-09T10:50:51.159Z,85.30
2018-02-09T10:53:17.734Z,89.77
2018-02-09T10:55:44.312Z,90.53
2018-02-09T10:58:10.914Z,82.17
2018-02-09T11:00:43.122Z,79.47
2018-02-09T11:03:09.699Z,88.47
2018-02-09T11:05:36.536Z,85.17
2018-02-09T11:08:03.108Z,86.00
2018-02-09T11:10:33.462Z,85.13
2018-02-09T11:13:00.359Z,81.70
2018-02-09T11:15:26.912Z,86.20
2018-02-09T11:17:53.493Z,83.63
2018-02-09T11:20:20.105Z,81.90
2018-02-09T11:22:47.360Z,78.20
2018-02-09T11:25:13.935Z,80.57
2018-02-09T11:27:40.525Z,79.40
2018-02-09T11:30:07.107Z,72.97
2018-02-09T11:32:33.678Z,75.97
2018-02-09T11:35:00.427Z,80.07
2018-02-09T11:37:27.008Z,73.30
2018-02-09T11:39:53.582Z,82.27
2018-02-09T11:42:20.427Z,86.40
2018-02-09T11:44:46.990Z,79.20
2018-02-09T11:47:13.571Z,75.03
2018-02-09T11:49:40.178Z,76.00
2018-02-09T11:52:06.791Z,75.03
2018-02-09T11:54:33.327Z,72.77
2018-02-09T11:57:00.175Z,75.37
2018-02-09T11:59:26.752Z,72.73
2018-02-09T12:01:53.323Z,70.57
2018-02-09T12:04:19.931Z,74.07
2018-02-09T12:06:46.506Z,75.60
2018-02-09T12:09:13.080Z,77.27
2018-02-09T12:11:39.674Z,70.50
2018-02-09T12:14:06.251Z,71.57
2018-02-09T12:16:32.827Z,75.57
2018-02-09T12:18:59.435Z,69.57
2018-02-09T12:21:26.006Z,73.60
2018-02-09T12:23:52.583Z,69.90
2018-02-09T12:26:19.186Z,70.63
2018-02-09T12:28:45.766Z,69.40
2018-02-09T12:31:12.334Z,69.33
2018-02-09T12:33:38.910Z,69.33
2018-02-09T12:36:05.486Z,68.90
2018-02-09T12:38:32.099Z,75.87
2018-02-09T12:40:58.675Z,72.10
2018-02-09T12:43:25.252Z,61.47
2018-02-09T12:45:52.006Z,73.27
2018-02-09T12:48:18.586Z,66.33
2018-02-09T12:50:45.177Z,70.00
2018-02-09T12:53:11.763Z,67.10
2018-02-09T12:55:38.330Z,64.90
2018-02-09T12:58:04.910Z,78.73
2018-02-09T13:00:31.683Z,76.07
2018-02-09T13:02:58.250Z,69.43
2018-02-09T13:05:24.826Z,66.80
2018-02-09T13:07:51.415Z,74.77
2018-02-09T13:10:17.995Z,73.40
2018-02-09T13:12:50.500Z,68.70
2018-02-09T13:15:17.075Z,72.40
2018-02-09T13:17:43.648Z,70.57
2018-02-09T13:20:10.331Z,69.63
2018-02-09T13:22:42.707Z,67.00
2018-02-09T13:25:09.296Z,92.10
2018-02-09T13:27:35.866Z,69.40
2018-02-09T13:30:02.472Z,66.90
2018-02-09T13:32:34.862Z,70.27
2018-02-09T13:35:01.446Z,70.37
2018-02-09T13:37:32.901Z,69.70
2018-02-09T13:39:59.470Z,67.87
2018-02-09T13:42:26.087Z,74.90
2018-02-09T13:44:52.667Z,72.60
2018-02-09T13:47:19.236Z,71.07
2018-02-09T13:49:45.831Z,71.33
2018-02-09T13:52:12.414Z,71.77
2018-02-09T13:54:38.992Z,68.93
2018-02-09T13:57:05.594Z,75.70
2018-02-09T13:59:32.175Z,70.83
2018-02-09T14:01:58.753Z,67.50
2018-02-09T14:04:25.342Z,76.43
2018-02-09T14:06:51.919Z,69.33
2018-02-09T14:09:18.514Z,73.63
2018-02-09T14:11:45.339Z,67.10
2018-02-09T14:14:11.919Z,74.37
2018-02-09T14:16:38.495Z,73.00
2018-02-09T14:19:05.090Z,73.40
2018-02-09T14:21:31.670Z,67.57
2018-02-09T14:23:58.250Z,72.47
2018-02-09T14:26:25.006Z,73.93
2018-02-09T14:28:51.588Z,81.07
2018-02-09T14:31:18.163Z,75.43
2018-02-09T14:33:44.750Z,71.60
2018-02-09T14:36:11.326Z,76.77
2018-02-09T14:38:37.908Z,76.57
2018-02-09T14:41:04.770Z,79.37
2018-02-09T14:43:31.351Z,81.03
2018-02-09T14:45:57.930Z,76.93
2018-02-09T14:48:24.691Z,74.87
2018-02-09T14:50:51.267Z,72.30
2018-02-09T14:53:17.844Z,72.37
2018-02-09T14:55:44.533Z,74.90
2018-02-09T14:58:11.112Z,75.57
2018-02-09T15:00:37.684Z,75.13
2018-02-09T15:03:04.279Z,79.50
2018-02-09T15:05:30.882Z,78.33
2018-02-09T15:07:57.432Z,76.60
2018-02-09T15:10:24.014Z,74.40
2018-02-09T15:12:50.586Z,80.00
2018-02-09T15:15:17.164Z,74.50
2018-02-09T15:17:43.763Z,70.83
2018-02-09T15:20:10.342Z,72.37
2018-02-09T15:22:36.910Z,78.70
2018-02-09T15:25:03.667Z,78.90
2018-02-09T15:27:30.294Z,76.00
2018-02-09T15:29:56.866Z,76.97
2018-02-09T15:32:23.564Z,81.57
2018-02-09T15:34:50.139Z,77.93
2018-02-09T15:37:16.731Z,69.10
2018-02-09T15:39:43.299Z,79.67
2018-02-09T15:42:09.879Z,79.73
2018-02-09T15:44:36.478Z,83.57
2018-02-09T15:47:03.307Z,86.07
2018-02-09T15:49:29.901Z,90.67
2018-02-09T15:51:56.470Z,96.37
2018-02-09T15:54:23.091Z,97.57
2018-02-09T15:56:49.667Z,109.80
2018-02-09T15:59:16.263Z,109.13
2018-02-09T16:01:42.848Z,102.87
2018-02-09T16:04:09.431Z,101.40
2018-02-09T16:06:36.295Z,113.30
2018-02-09T16:09:02.890Z,117.53
2018-02-09T16:11:29.483Z,112.20
2018-02-09T16:13:56.087Z,109.68
2018-02-09T16:16:22.675Z,108.03
2018-02-09T16:18:49.262Z,108.60
2018-02-09T16:21:15.863Z,108.32
2018-02-09T16:23:42.458Z,110.90
2018-02-09T16:26:09.038Z,108.60
2018-02-09T16:28:35.905Z,125.05
2018-02-09T16:31:02.490Z,110.63
2018-02-09T16:46:55.742Z,125.20
2018-02-09T16:49:22.737Z,123.03
2018-02-09T16:51:49.283Z,132.02
2018-02-09T16:54:15.871Z,121.47
2018-02-09T16:56:42.663Z,123.97
2018-02-09T16:59:09.274Z,125.12
2018-02-09T17:01:35.864Z,125.12
2018-02-09T17:04:02.475Z,126.85
2018-02-09T17:06:29.058Z,128.18
2018-02-09T17:08:55.644Z,121.97
2018-02-09T17:11:22.263Z,122.20
2018-02-09T17:13:48.851Z,124.30
2018-02-09T17:16:15.438Z,121.25
2018-02-09T17:18:42.034Z,129.63
2018-02-09T17:21:08.612Z,132.00
2018-02-09T17:23:35.195Z,136.35
2018-02-09T17:26:01.791Z,129.55
2018-02-09T17:28:28.368Z,126.62
2018-02-09T17:30:54.986Z,124.30
2018-02-09T17:33:21.574Z,118.32
2018-02-09T17:35:48.170Z,120.20
2018-02-09T17:38:15.111Z,116.05
2018-02-09T17:40:41.690Z,131.98
2018-02-09T17:43:08.274Z,128.55
2018-02-09T17:45:34.879Z,130.73
2018-02-09T17:48:01.468Z,118.22
2018-02-09T17:50:28.055Z,123.47
2018-02-09T17:52:55.078Z,123.78
2018-02-09T17:55:21.670Z,111.45
2018-02-09T17:57:48.259Z,130.93
2018-02-09T18:00:14.875Z,123.00
2018-02-09T18:02:41.474Z,134.63
2018-02-09T18:05:08.053Z,124.47
2018-02-09T18:07:34.631Z,120.85
2018-02-09T18:10:01.212Z,132.02
2018-02-09T18:12:27.806Z,123.80
2018-02-09T18:14:54.652Z,132.10
2018-02-09T18:17:21.251Z,144.73
2018-02-09T18:19:47.836Z,131.90
2018-02-09T18:22:14.817Z,123.93
2018-02-09T18:24:41.399Z,122.95
2018-02-09T18:27:07.982Z,132.07
2018-02-09T18:29:34.596Z,124.75
2018-02-09T18:32:01.183Z,130.85
2018-02-09T18:34:27.771Z,129.45
2018-02-09T18:36:54.386Z,127.03
2018-02-09T18:39:20.999Z,121.20
2018-02-09T18:41:47.590Z,127.25
2018-02-09T18:44:14.198Z,130.45
2018-02-09T18:46:40.838Z,122.78
2018-02-09T18:49:07.367Z,132.48
2018-02-09T18:51:33.964Z,130.25
2018-02-09T18:54:00.543Z,123.32
2018-02-09T18:56:27.127Z,120.57
2018-02-09T18:58:53.897Z,125.62
2018-02-09T19:01:20.475Z,124.45
2018-02-09T19:03:47.065Z,140.45
2018-02-09T19:06:13.655Z,126.68
2018-02-09T19:08:40.240Z,130.80
2018-02-09T19:11:06.831Z,130.43
2018-02-09T19:13:33.515Z,128.23
2018-02-09T19:16:00.098Z,123.38
2018-02-09T19:18:26.686Z,121.15
2018-02-09T19:20:53.290Z,157.70
2018-02-09T19:23:19.870Z,130.90
2018-02-09T19:25:46.460Z,138.77
2018-02-09T19:28:13.303Z,149.12
2018-02-09T19:30:39.885Z,135.23
2018-02-09T19:33:06.470Z,143.55
2018-02-09T19:35:33.075Z,137.50
2018-02-09T19:37:59.663Z,145.40
2018-02-09T19:40:26.246Z,136.85
2018-02-09T19:42:52.855Z,145.52
2018-02-09T19:45:19.445Z,138.50
2018-02-09T19:47:46.027Z,151.85
2018-02-09T19:50:12.626Z,134.30
2018-02-09T19:52:39.211Z,144.37
2018-02-09T19:55:05.796Z,152.57
2018-02-09T19:57:32.475Z,139.30
2018-02-09T19:59:59.056Z,161.93
2018-02-09T20:02:25.656Z,132.23
2018-02-09T20:04:52.253Z,154.77
2018-02-09T20:07:18.839Z,150.05
2018-02-09T20:09:45.427Z,163.68
2018-02-09T20:12:12.138Z,148.87
2018-02-09T20:14:38.714Z,142.93
2018-02-09T20:17:05.298Z,153.05
2018-02-09T20:19:31.914Z,152.12
2018-02-09T20:21:58.495Z,143.05
2018-02-09T20:24:25.079Z,156.50
2018-02-09T20:26:51.691Z,159.23
2018-02-09T20:29:18.286Z,146.77
2018-02-09T20:31:44.862Z,162.23
2018-02-09T20:34:11.476Z,160.70
2018-02-09T20:36:38.052Z,153.75
2018-02-09T20:39:04.636Z,157.07
2018-02-09T20:41:31.481Z,131.75
2018-02-09T20:43:58.063Z,143.77
2018-02-09T20:46:24.652Z,147.27
2018-02-09T20:48:51.251Z,146.52
2018-02-09T20:51:17.839Z,151.25
2018-02-09T20:53:44.428Z,151.37
2018-02-09T20:56:11.315Z,161.43
2018-02-09T20:58:37.882Z,146.55
2018-02-09T21:01:04.473Z,148.70
2018-02-09T21:03:31.059Z,155.75
2018-02-09T21:05:57.648Z,152.40
2018-02-09T21:08:24.222Z,150.25
2018-02-09T21:10:51.009Z,140.85
2018-02-09T21:13:17.588Z,157.88
2018-02-09T21:15:44.166Z,168.37
2018-02-09T21:18:11.131Z,146.52
2018-02-09T21:20:37.716Z,154.35
2018-02-09T21:23:04.294Z,133.40
2018-02-09T21:25:30.894Z,145.50
2018-02-09T21:27:57.479Z,145.77
2018-02-09T21:30:24.068Z,148.40
2018-02-09T21:32:50.683Z,146.55
2018-02-09T21:35:17.267Z,150.65
2018-02-09T21:37:43.851Z,148.65
2018-02-09T21:40:10.475Z,136.05
2018-02-09T21:42:37.059Z,154.00
2018-02-09T21:45:03.639Z,149.27
2018-02-09T21:47:30.331Z,145.75
2018-02-09T21:49:56.916Z,168.77
2018-02-09T21:52:23.495Z,145.57
2018-02-09T21:54:50.354Z,156.85
2018-02-09T21:57:16.935Z,148.38
2018-02-09T21:59:43.560Z,172.95
2018-02-09T22:02:10.214Z,150.60
2018-02-09T22:04:36.806Z,153.80
2018-02-09T22:07:04.410Z,157.45
2018-02-09T22:09:31.015Z,158.70
2018-02-09T22:11:57.644Z,158.80
2018-02-09T22:14:24.175Z,166.65
2018-02-09T22:16:50.782Z,152.82
2018-02-09T22:19:17.366Z,167.00
2018-02-09T22:21:43.950Z,160.15
2018-02-09T22:24:10.535Z,183.70
2018-02-09T22:26:37.118Z,154.05
2018-02-09T22:29:03.963Z,163.65
2018-02-09T22:31:30.548Z,150.32
2018-02-09T22:33:57.130Z,161.85
2018-02-09T22:36:24.002Z,148.20
2018-02-09T22:38:50.595Z,161.95
2018-02-09T22:41:17.171Z,150.48
2018-02-09T22:43:43.781Z,156.05
2018-02-09T22:46:10.359Z,154.05
2018-02-09T22:48:36.939Z,149.45
2018-02-09T22:51:03.899Z,153.93
2018-02-09T22:53:30.519Z,166.93
2018-02-09T22:55:57.062Z,144.68
2018-02-09T22:58:23.906Z,154.73
2018-02-09T23:00:50.495Z,159.35
2018-02-09T23:03:17.095Z,147.82
2018-02-09T23:05:43.706Z,163.43
2018-02-09T23:08:10.284Z,155.07
2018-02-09T23:10:36.867Z,155.45
2018-02-09T23:13:03.467Z,157.68
2018-02-09T23:15:30.043Z,155.05
2018-02-09T23:17:56.623Z,165.18
2018-02-09T23:20:23.529Z,153.93
2018-02-09T23:22:50.123Z,153.52
2018-02-09T23:25:16.704Z,152.32
2018-02-09T23:27:43.291Z,174.40
2018-02-09T23:30:09.867Z,162.27
2018-02-09T23:32:36.472Z,151.15
2018-02-09T23:35:03.055Z,157.68
2018-02-09T23:37:29.634Z,157.45
2018-02-09T23:39:56.243Z,164.93
2018-02-09T23:42:22.827Z,146.68
2018-02-09T23:44:49.411Z,154.73
2018-02-09T23:47:16.337Z,152.38
2018-02-09T23:49:42.903Z,158.75
2018-02-09T23:52:09.478Z,143.07
2018-02-09T23:54:36.075Z,157.90
2018-02-09T23:57:02.651Z,165.15
2018-02-09T23:59:29.235Z,154.98
